createdAt,value
2022-11-05T00:00:57.435Z,8.71
2022-11-05T00:01:57.427Z,8.73
2022-11-05T00:02:57.396Z,8.73
2022-11-05T00:03:57.475Z,8.70
2022-11-05T00:04:57.366Z,8.71
2022-11-05T00:05:57.375Z,8.70
2022-11-05T00:06:57.345Z,8.70
2022-11-05T00:07:57.325Z,8.68
2022-11-05T00:08:57.335Z,8.68
2022-11-05T00:09:57.318Z,8.67
2022-11-05T00:10:57.290Z,8.67
2022-11-05T00:11:57.283Z,8.65
2022-11-05T00:12:57.263Z,8.65
2022-11-05T00:13:57.264Z,8.65
2022-11-05T00:14:57.237Z,8.65
2022-11-05T00:15:57.246Z,8.67
2022-11-05T00:16:57.217Z,8.65
2022-11-05T00:17:57.203Z,8.64
2022-11-05T00:18:57.190Z,8.64
2022-11-05T00:19:57.177Z,8.63
2022-11-05T00:20:57.192Z,8.63
2022-11-05T00:21:57.164Z,8.63
2022-11-05T00:22:57.134Z,8.63
2022-11-05T00:23:57.125Z,8.63
2022-11-05T00:24:57.105Z,8.63
2022-11-05T00:25:57.118Z,8.63
2022-11-05T00:26:57.095Z,8.64
2022-11-05T00:27:57.063Z,8.64
2022-11-05T00:28:57.064Z,8.63
2022-11-05T00:29:57.034Z,8.63
2022-11-05T00:30:57.014Z,8.63
2022-11-05T00:31:57.019Z,8.63
2022-11-05T00:32:57.022Z,8.63
2022-11-05T00:33:57.075Z,8.63
2022-11-05T00:34:56.964Z,8.63
2022-11-05T00:35:56.973Z,8.61
2022-11-05T00:36:56.963Z,8.61
2022-11-05T00:37:56.944Z,8.61
2022-11-05T00:38:56.934Z,8.61
2022-11-05T00:39:56.909Z,8.63
2022-11-05T00:40:56.899Z,8.63
2022-11-05T00:41:56.900Z,8.63
2022-11-05T00:42:56.883Z,8.64
2022-11-05T00:43:56.865Z,8.64
2022-11-05T00:44:56.841Z,8.63
2022-11-05T00:45:56.830Z,8.64
2022-11-05T00:46:59.889Z,8.64
2022-11-05T00:47:56.805Z,8.63
2022-11-05T00:48:56.779Z,8.63
2022-11-05T00:49:56.799Z,8.64
2022-11-05T00:50:56.770Z,8.64
2022-11-05T00:51:56.778Z,8.63
2022-11-05T00:52:56.769Z,8.63
2022-11-05T00:53:56.724Z,8.63
2022-11-05T00:54:56.708Z,8.63
2022-11-05T00:55:56.703Z,8.63
2022-11-05T00:56:59.411Z,8.63
2022-11-05T00:57:57.683Z,8.64
2022-11-05T00:58:56.675Z,8.64
2022-11-05T00:59:56.643Z,8.64
2022-11-05T01:00:56.664Z,8.64
2022-11-05T01:01:56.764Z,8.64
2022-11-05T01:02:56.685Z,8.64
2022-11-05T01:03:56.588Z,8.65
2022-11-05T01:04:56.593Z,8.65
2022-11-05T01:05:56.558Z,8.64
2022-11-05T01:06:56.569Z,8.65
2022-11-05T01:07:56.548Z,8.67
2022-11-05T01:08:56.550Z,8.65
2022-11-05T01:09:56.522Z,8.67
2022-11-05T01:10:56.501Z,8.68
2022-11-05T01:11:56.509Z,8.70
2022-11-05T01:12:56.488Z,8.70
2022-11-05T01:13:56.467Z,8.70
2022-11-05T01:14:56.450Z,8.70
2022-11-05T01:15:56.450Z,8.70
2022-11-05T01:16:56.430Z,8.70
2022-11-05T01:17:56.408Z,8.70
2022-11-05T01:18:56.396Z,8.71
2022-11-05T01:19:56.379Z,8.73
2022-11-05T01:20:56.379Z,8.73
2022-11-05T01:21:56.347Z,8.73
2022-11-05T01:22:56.369Z,8.73
2022-11-05T01:23:56.317Z,8.75
2022-11-05T01:24:56.326Z,8.73
2022-11-05T01:25:56.299Z,8.75
2022-11-05T01:26:56.307Z,8.75
2022-11-05T01:27:56.320Z,8.73
2022-11-05T01:28:56.322Z,8.73
2022-11-05T01:29:56.246Z,8.75
2022-11-05T01:30:56.247Z,8.75
2022-11-05T01:31:56.225Z,8.75
2022-11-05T01:32:56.226Z,8.75
2022-11-05T01:33:56.217Z,8.76
2022-11-05T01:34:56.189Z,8.76
2022-11-05T01:35:56.164Z,8.76
2022-11-05T01:36:56.171Z,8.78
2022-11-05T01:37:56.148Z,8.76
2022-11-05T01:38:56.177Z,8.79
2022-11-05T01:39:56.130Z,8.79
2022-11-05T01:40:56.104Z,8.79
2022-11-05T01:41:56.085Z,8.79
2022-11-05T01:42:56.099Z,8.79
2022-11-05T01:43:56.064Z,8.79
2022-11-05T01:44:56.062Z,8.79
2022-11-05T01:45:56.043Z,8.78
2022-11-05T01:46:56.025Z,8.80
2022-11-05T01:47:56.025Z,8.80
2022-11-05T01:49:01.782Z,8.79
2022-11-05T01:49:56.981Z,8.80
2022-11-05T01:50:55.974Z,8.79
2022-11-05T01:51:55.954Z,8.80
2022-11-05T01:52:55.992Z,8.80
2022-11-05T01:53:55.931Z,8.82
2022-11-05T01:54:55.924Z,8.80
2022-11-05T01:55:55.894Z,8.80
2022-11-05T01:56:55.900Z,8.82
2022-11-05T01:57:55.926Z,8.80
2022-11-05T01:58:55.873Z,8.82
2022-11-05T01:59:55.843Z,8.80
2022-11-05T02:00:55.850Z,8.82
2022-11-05T02:01:55.885Z,8.82
2022-11-05T02:02:55.880Z,8.82
2022-11-05T02:03:55.792Z,8.83
2022-11-05T02:04:55.793Z,8.83
2022-11-05T02:05:55.805Z,8.83
2022-11-05T02:06:55.762Z,8.85
2022-11-05T02:07:55.758Z,8.86
2022-11-05T02:08:55.741Z,8.85
2022-11-05T02:09:55.723Z,8.86
2022-11-05T02:10:55.723Z,8.85
2022-11-05T02:11:55.708Z,8.86
2022-11-05T02:12:55.704Z,8.86
2022-11-05T02:13:55.660Z,8.85
2022-11-05T02:14:55.692Z,8.86
2022-11-05T02:15:55.651Z,8.86
2022-11-05T02:16:55.640Z,8.86
2022-11-05T02:17:55.629Z,8.88
2022-11-05T02:18:55.649Z,8.88
2022-11-05T02:19:55.588Z,8.88
2022-11-05T02:20:55.580Z,8.88
2022-11-05T02:21:55.562Z,8.88
2022-11-05T02:22:55.558Z,8.88
2022-11-05T02:23:55.553Z,8.89
2022-11-05T02:24:55.519Z,8.88
2022-11-05T02:25:55.498Z,8.88
2022-11-05T02:26:55.499Z,8.88
2022-11-05T02:27:55.510Z,8.88
2022-11-05T02:28:55.467Z,8.89
2022-11-05T02:29:55.486Z,8.88
2022-11-05T02:30:55.450Z,8.91
2022-11-05T02:31:55.430Z,8.89
2022-11-05T02:32:55.459Z,8.89
2022-11-05T02:33:55.418Z,8.88
2022-11-05T02:34:55.403Z,8.89
2022-11-05T02:35:55.367Z,8.89
2022-11-05T02:36:55.381Z,8.89
2022-11-05T02:37:55.373Z,8.89
2022-11-05T02:38:55.339Z,8.89
2022-11-05T02:39:55.360Z,8.89
2022-11-05T02:40:55.334Z,8.89
2022-11-05T02:41:58.135Z,8.91
2022-11-05T02:42:56.301Z,8.89
2022-11-05T02:43:55.269Z,8.93
2022-11-05T02:44:55.268Z,8.93
2022-11-05T02:45:55.238Z,8.91
2022-11-05T02:46:55.249Z,8.91
2022-11-05T02:47:55.243Z,8.93
2022-11-05T02:48:55.214Z,8.89
2022-11-05T02:49:55.187Z,8.89
2022-11-05T02:50:55.194Z,8.91
2022-11-05T02:51:55.204Z,8.89
2022-11-05T02:52:55.201Z,8.91
2022-11-05T02:53:55.145Z,8.91
2022-11-05T02:54:55.147Z,8.91
2022-11-05T02:55:55.127Z,8.91
2022-11-05T02:56:55.103Z,8.91
2022-11-05T02:57:55.134Z,8.91
2022-11-05T02:58:55.076Z,8.91
2022-11-05T02:59:55.061Z,8.89
2022-11-05T03:00:55.057Z,8.91
2022-11-05T03:01:55.152Z,8.88
2022-11-05T03:02:55.137Z,8.89
2022-11-05T03:03:55.005Z,8.89
2022-11-05T03:04:55.005Z,8.88
2022-11-05T03:05:54.982Z,8.88
2022-11-05T03:06:54.993Z,8.86
2022-11-05T03:07:54.962Z,8.83
2022-11-05T03:08:54.954Z,8.83
2022-11-05T03:09:54.931Z,8.80
2022-11-05T03:10:54.923Z,8.80
2022-11-05T03:11:54.913Z,8.78
2022-11-05T03:12:54.919Z,8.78
2022-11-05T03:13:54.872Z,8.75
2022-11-05T03:14:54.863Z,8.73
2022-11-05T03:15:54.861Z,8.71
2022-11-05T03:16:54.842Z,8.70
2022-11-05T03:17:54.843Z,8.67
2022-11-05T03:18:54.817Z,8.65
2022-11-05T03:19:54.802Z,8.63
2022-11-05T03:20:54.830Z,8.60
2022-11-05T03:21:54.774Z,8.61
2022-11-05T03:22:54.788Z,8.58
2022-11-05T03:23:54.752Z,8.57
2022-11-05T03:24:54.732Z,8.55
2022-11-05T03:25:54.721Z,8.55
2022-11-05T03:26:54.721Z,8.54
2022-11-05T03:27:54.700Z,8.55
2022-11-05T03:28:54.685Z,8.55
2022-11-05T03:29:54.671Z,8.54
2022-11-05T03:30:54.670Z,8.52
2022-11-05T03:31:54.641Z,8.52
2022-11-05T03:32:54.666Z,8.50
2022-11-05T03:33:54.608Z,8.49
2022-11-05T03:34:54.609Z,8.49
2022-11-05T03:35:54.589Z,8.49
2022-11-05T03:36:54.589Z,8.47
2022-11-05T03:37:54.582Z,8.49
2022-11-05T03:38:54.549Z,8.49
2022-11-05T03:39:54.546Z,8.49
2022-11-05T03:40:54.533Z,8.49
2022-11-05T03:41:54.507Z,8.47
2022-11-05T03:42:54.511Z,8.50
2022-11-05T03:43:54.480Z,8.49
2022-11-05T03:44:54.482Z,8.49
2022-11-05T03:45:54.466Z,8.49
2022-11-05T03:46:54.458Z,8.49
2022-11-05T03:47:54.467Z,8.47
2022-11-05T03:48:54.489Z,8.47
2022-11-05T03:49:54.411Z,8.47
2022-11-05T03:50:54.400Z,8.47
2022-11-05T03:51:54.391Z,8.47
2022-11-05T03:52:54.392Z,8.45
2022-11-05T03:53:54.347Z,8.46
2022-11-05T03:54:54.346Z,8.46
2022-11-05T03:55:54.320Z,8.45
2022-11-05T03:56:54.327Z,8.43
2022-11-05T03:57:54.309Z,8.45
2022-11-05T03:58:58.726Z,8.43
2022-11-05T03:59:55.270Z,8.43
2022-11-05T04:00:54.268Z,8.43
2022-11-05T04:01:54.340Z,8.45
2022-11-05T04:02:54.325Z,8.43
2022-11-05T04:03:54.232Z,8.43
2022-11-05T04:04:54.216Z,8.43
2022-11-05T04:05:54.195Z,8.42
2022-11-05T04:06:54.194Z,8.42
2022-11-05T04:07:54.185Z,8.40
2022-11-05T04:08:54.157Z,8.39
2022-11-05T04:09:54.143Z,8.40
2022-11-05T04:10:54.134Z,8.37
2022-11-05T04:11:54.104Z,8.37
2022-11-05T04:12:54.114Z,8.37
2022-11-05T04:13:54.094Z,8.37
2022-11-05T04:14:54.104Z,8.36
2022-11-05T04:15:54.096Z,8.36
2022-11-05T04:16:54.106Z,8.37
2022-11-05T04:17:54.052Z,8.34
2022-11-05T04:18:54.035Z,8.34
2022-11-05T04:19:54.023Z,8.32
2022-11-05T04:20:54.017Z,8.31
2022-11-05T04:21:53.973Z,8.29
2022-11-05T04:22:53.994Z,8.28
2022-11-05T04:23:53.953Z,8.27
2022-11-05T04:24:53.956Z,8.24
2022-11-05T04:25:53.931Z,8.22
2022-11-05T04:26:53.935Z,8.22
2022-11-05T04:27:53.933Z,8.18
2022-11-05T04:28:53.923Z,8.18
2022-11-05T04:29:53.883Z,8.17
2022-11-05T04:30:53.871Z,8.17
2022-11-05T04:31:53.852Z,8.13
2022-11-05T04:32:53.882Z,8.13
2022-11-05T04:33:53.831Z,8.12
2022-11-05T04:34:53.826Z,8.10
2022-11-05T04:35:53.806Z,8.07
2022-11-05T04:36:53.787Z,8.07
2022-11-05T04:37:53.783Z,8.06
2022-11-05T04:38:53.959Z,8.04
2022-11-05T04:39:53.749Z,8.03
2022-11-05T04:40:53.741Z,8.02
2022-11-05T04:41:53.719Z,7.99
2022-11-05T04:42:53.730Z,8.00
2022-11-05T04:43:53.705Z,7.96
2022-11-05T04:44:53.699Z,7.94
2022-11-05T04:45:53.670Z,7.92
2022-11-05T04:46:53.684Z,7.92
2022-11-05T04:47:53.711Z,7.91
2022-11-05T04:48:53.767Z,7.89
2022-11-05T04:49:53.609Z,7.88
2022-11-05T04:50:53.619Z,7.86
2022-11-05T04:51:53.591Z,7.86
2022-11-05T04:52:53.653Z,7.84
2022-11-05T04:53:53.581Z,7.82
2022-11-05T04:54:53.549Z,7.79
2022-11-05T04:55:53.546Z,7.76
2022-11-05T04:56:53.552Z,7.73
2022-11-05T04:57:53.529Z,7.71
2022-11-05T04:58:53.510Z,7.69
2022-11-05T04:59:53.487Z,7.63
2022-11-05T05:00:53.616Z,7.60
2022-11-05T05:01:53.539Z,7.55
2022-11-05T05:02:53.467Z,7.54
2022-11-05T05:03:53.471Z,7.52
2022-11-05T05:04:53.420Z,7.50
2022-11-05T05:05:54.013Z,7.45
2022-11-05T05:06:53.416Z,7.45
2022-11-05T05:07:53.391Z,7.42
2022-11-05T05:08:53.366Z,7.39
2022-11-05T05:09:53.365Z,7.39
2022-11-05T05:10:53.360Z,7.36
2022-11-05T05:11:53.366Z,7.36
2022-11-05T05:12:53.365Z,7.34
2022-11-05T05:13:53.336Z,7.33
2022-11-05T05:14:53.305Z,7.30
2022-11-05T05:15:53.315Z,7.32
2022-11-05T05:16:53.272Z,7.29
2022-11-05T05:17:53.294Z,7.26
2022-11-05T05:18:53.245Z,7.26
2022-11-05T05:19:53.232Z,7.23
2022-11-05T05:20:53.214Z,7.21
2022-11-05T05:21:53.223Z,7.21
2022-11-05T05:22:53.207Z,7.18
2022-11-05T05:23:53.199Z,7.18
2022-11-05T05:24:53.308Z,7.18
2022-11-05T05:25:53.175Z,7.18
2022-11-05T05:26:53.155Z,7.16
2022-11-05T05:27:53.142Z,7.16
2022-11-05T05:28:53.164Z,7.14
2022-11-05T05:29:53.094Z,7.14
2022-11-05T05:30:58.492Z,7.14
2022-11-05T05:31:54.075Z,7.12
2022-11-05T05:32:53.078Z,7.09
2022-11-05T05:33:53.088Z,7.09
2022-11-05T05:34:53.038Z,7.07
2022-11-05T05:35:53.033Z,7.05
2022-11-05T05:36:52.999Z,7.04
2022-11-05T05:37:53.033Z,7.01
2022-11-05T05:38:52.962Z,7.00
2022-11-05T05:39:52.994Z,7.00
2022-11-05T05:40:52.954Z,7.00
2022-11-05T05:41:52.963Z,6.96
2022-11-05T05:42:52.937Z,6.94
2022-11-05T05:43:52.918Z,6.93
2022-11-05T05:44:52.927Z,6.90
2022-11-05T05:45:52.902Z,6.89
2022-11-05T05:46:52.912Z,6.89
2022-11-05T05:47:52.900Z,6.89
2022-11-05T05:48:52.854Z,6.86
2022-11-05T05:49:52.834Z,6.83
2022-11-05T05:50:52.823Z,6.83
2022-11-05T05:51:52.830Z,6.82
2022-11-05T05:52:52.815Z,6.82
2022-11-05T05:53:52.814Z,6.81
2022-11-05T05:54:52.761Z,6.81
2022-11-05T05:55:52.763Z,6.79
2022-11-05T05:56:52.761Z,6.79
2022-11-05T05:57:52.750Z,6.79
2022-11-05T05:58:52.746Z,6.79
2022-11-05T05:59:52.711Z,6.78
2022-11-05T06:00:52.733Z,6.78
2022-11-05T06:01:52.766Z,6.78
2022-11-05T06:02:52.718Z,6.76
2022-11-05T06:03:52.650Z,6.76
2022-11-05T06:04:52.665Z,6.79
2022-11-05T06:05:52.645Z,6.76
2022-11-05T06:06:52.611Z,6.79
2022-11-05T06:07:52.616Z,6.78
2022-11-05T06:08:52.578Z,6.79
2022-11-05T06:09:52.599Z,6.79
2022-11-05T06:10:52.592Z,6.81
2022-11-05T06:11:52.548Z,6.82
2022-11-05T06:12:52.559Z,6.83
2022-11-05T06:13:52.539Z,6.83
2022-11-05T06:14:52.529Z,6.83
2022-11-05T06:15:52.498Z,6.86
2022-11-05T06:16:52.486Z,6.83
2022-11-05T06:17:52.503Z,6.82
2022-11-05T06:18:52.691Z,6.83
2022-11-05T06:19:52.451Z,6.83
2022-11-05T06:20:52.437Z,6.83
2022-11-05T06:21:52.437Z,6.83
2022-11-05T06:22:52.424Z,6.83
2022-11-05T06:23:52.406Z,6.83
2022-11-05T06:24:52.385Z,6.82
2022-11-05T06:25:52.368Z,6.83
2022-11-05T06:26:52.377Z,6.82
2022-11-05T06:27:52.357Z,6.82
2022-11-05T06:28:52.326Z,6.83
2022-11-05T06:29:52.345Z,6.83
2022-11-05T06:30:52.296Z,6.83
2022-11-05T06:31:52.304Z,6.83
2022-11-05T06:32:52.305Z,6.83
2022-11-05T06:33:52.269Z,6.83
2022-11-05T06:34:52.245Z,6.86
2022-11-05T06:35:52.235Z,6.86
2022-11-05T06:36:52.223Z,6.87
2022-11-05T06:37:52.287Z,6.89
2022-11-05T06:38:52.209Z,6.87
2022-11-05T06:39:52.194Z,6.89
2022-11-05T06:40:52.224Z,6.89
2022-11-05T06:42:17.275Z,6.90
2022-11-05T06:42:53.174Z,6.90
2022-11-05T06:43:52.131Z,6.93
2022-11-05T06:44:52.147Z,6.94
2022-11-05T06:45:52.129Z,6.96
2022-11-05T06:46:52.115Z,6.97
2022-11-05T06:47:52.144Z,6.99
2022-11-05T06:48:52.080Z,7.05
2022-11-05T06:49:52.074Z,7.05
2022-11-05T06:50:52.061Z,7.08
2022-11-05T06:51:52.042Z,7.09
2022-11-05T06:52:52.033Z,7.14
2022-11-05T06:53:52.012Z,7.14
2022-11-05T06:54:51.993Z,7.16
2022-11-05T06:55:51.974Z,7.21
2022-11-05T06:56:51.972Z,7.24
2022-11-05T06:57:51.984Z,7.27
2022-11-05T06:58:51.930Z,7.30
2022-11-05T06:59:55.761Z,7.33
2022-11-05T07:00:52.994Z,7.36
2022-11-05T07:01:51.966Z,7.41
2022-11-05T07:02:51.918Z,7.42
2022-11-05T07:03:51.978Z,7.45
2022-11-05T07:04:51.878Z,7.45
2022-11-05T07:05:51.861Z,7.50
2022-11-05T07:06:51.830Z,7.50
2022-11-05T07:07:51.849Z,7.52
2022-11-05T07:08:51.830Z,7.52
2022-11-05T07:09:51.800Z,7.54
2022-11-05T07:10:51.801Z,7.55
2022-11-05T07:11:51.791Z,7.58
2022-11-05T07:12:51.783Z,7.60
2022-11-05T07:13:51.755Z,7.62
2022-11-05T07:14:51.748Z,7.67
2022-11-05T07:15:51.719Z,7.69
2022-11-05T07:16:51.700Z,7.74
2022-11-05T07:17:51.719Z,7.81
2022-11-05T07:18:51.680Z,7.88
2022-11-05T07:19:51.700Z,7.94
2022-11-05T07:20:51.648Z,8.02
2022-11-05T07:21:51.692Z,8.07
2022-11-05T07:22:51.651Z,8.14
2022-11-05T07:23:51.626Z,8.20
2022-11-05T07:24:51.598Z,8.24
2022-11-05T07:25:51.618Z,8.27
2022-11-05T07:26:51.586Z,8.31
2022-11-05T07:27:51.609Z,8.34
2022-11-05T07:28:51.556Z,8.39
2022-11-05T07:29:51.546Z,8.40
2022-11-05T07:30:51.518Z,8.45
2022-11-05T07:31:51.528Z,8.50
2022-11-05T07:32:51.536Z,8.54
2022-11-05T07:33:51.509Z,8.57
2022-11-05T07:34:51.466Z,8.61
2022-11-05T07:35:51.563Z,8.64
2022-11-05T07:36:51.466Z,8.68
2022-11-05T07:37:51.442Z,8.71
2022-11-05T07:38:54.882Z,8.75
2022-11-05T07:39:52.416Z,8.78
2022-11-05T07:40:51.398Z,8.80
2022-11-05T07:41:51.386Z,8.83
2022-11-05T07:42:51.393Z,8.85
2022-11-05T07:43:51.375Z,8.86
2022-11-05T07:44:51.355Z,8.86
2022-11-05T07:45:51.360Z,8.88
2022-11-05T07:46:51.354Z,8.93
2022-11-05T07:47:51.319Z,8.97
2022-11-05T07:48:51.300Z,9.01
2022-11-05T07:49:51.278Z,9.08
2022-11-05T07:50:51.261Z,9.13
2022-11-05T07:51:51.266Z,9.20
2022-11-05T07:52:51.247Z,9.26
2022-11-05T07:53:51.213Z,9.34
2022-11-05T07:54:51.216Z,9.41
2022-11-05T07:55:51.254Z,9.50
2022-11-05T07:56:51.193Z,9.58
2022-11-05T07:57:51.255Z,9.65
2022-11-05T07:58:51.155Z,9.73
2022-11-05T07:59:51.173Z,9.85
2022-11-05T08:00:51.242Z,9.89
2022-11-05T08:01:51.393Z,9.95
2022-11-05T08:02:51.243Z,9.99
2022-11-05T08:03:51.093Z,10.07
2022-11-05T08:04:51.081Z,10.14
2022-11-05T08:05:51.072Z,10.20
2022-11-05T08:06:51.088Z,10.35
2022-11-05T08:07:51.046Z,10.55
2022-11-05T08:08:51.032Z,10.98
2022-11-05T08:09:51.013Z,11.51
2022-11-05T08:10:51.007Z,12.05
2022-11-05T08:11:53.020Z,12.56
2022-11-05T08:12:50.974Z,13.04
2022-11-05T08:13:50.975Z,13.48
2022-11-05T08:14:50.951Z,13.88
2022-11-05T08:15:50.945Z,14.38
2022-11-05T08:16:50.941Z,14.82
2022-11-05T08:17:50.910Z,15.16
2022-11-05T08:18:50.902Z,15.20
2022-11-05T08:19:50.882Z,15.05
2022-11-05T08:20:50.903Z,14.93
2022-11-05T08:21:50.883Z,14.75
2022-11-05T08:22:50.845Z,14.57
2022-11-05T08:23:50.826Z,14.39
2022-11-05T08:24:50.822Z,14.21
2022-11-05T08:25:50.812Z,14.06
2022-11-05T08:26:50.807Z,13.91
2022-11-05T08:27:50.787Z,13.83
2022-11-05T08:28:50.760Z,13.72
2022-11-05T08:29:50.752Z,13.68
2022-11-05T08:30:50.753Z,13.86
2022-11-05T08:31:50.751Z,14.01
2022-11-05T08:32:50.701Z,13.99
2022-11-05T08:33:50.705Z,13.91
2022-11-05T08:34:50.674Z,14.08
2022-11-05T08:35:50.682Z,14.21
2022-11-05T08:36:50.670Z,14.36
2022-11-05T08:37:50.675Z,14.41
2022-11-05T08:38:50.630Z,14.44
2022-11-05T08:39:50.615Z,14.36
2022-11-05T08:40:50.621Z,14.26
2022-11-05T08:41:50.608Z,14.21
2022-11-05T08:42:50.625Z,14.31
2022-11-05T08:43:50.581Z,14.29
2022-11-05T08:44:50.539Z,14.24
2022-11-05T08:45:50.549Z,14.41
2022-11-05T08:46:50.553Z,14.45
2022-11-05T08:47:50.509Z,14.44
2022-11-05T08:48:50.514Z,14.45
2022-11-05T08:49:50.488Z,14.39
2022-11-05T08:50:50.513Z,14.35
2022-11-05T08:51:50.464Z,14.31
2022-11-05T08:52:50.602Z,14.34
2022-11-05T08:53:50.437Z,14.27
2022-11-05T08:54:50.472Z,14.19
2022-11-05T08:55:50.408Z,14.12
2022-11-05T08:56:50.380Z,14.05
2022-11-05T08:57:50.374Z,13.96
2022-11-05T08:58:50.361Z,13.87
2022-11-05T08:59:50.384Z,13.84
2022-11-05T09:00:50.447Z,13.76
2022-11-05T09:01:50.510Z,13.68
2022-11-05T09:02:50.317Z,13.57
2022-11-05T09:03:50.301Z,13.53
2022-11-05T09:04:50.333Z,13.46
2022-11-05T09:05:50.299Z,13.38
2022-11-05T09:06:50.249Z,13.31
2022-11-05T09:07:50.257Z,13.28
2022-11-05T09:08:50.230Z,13.22
2022-11-05T09:09:50.220Z,13.24
2022-11-05T09:10:50.213Z,13.25
2022-11-05T09:12:11.131Z,13.28
2022-11-05T09:12:51.173Z,13.44
2022-11-05T09:13:50.211Z,13.63
2022-11-05T09:14:50.151Z,13.76
2022-11-05T09:15:50.157Z,13.86
2022-11-05T09:16:50.120Z,14.02
2022-11-05T09:17:50.159Z,14.26
2022-11-05T09:18:50.117Z,14.67
2022-11-05T09:19:50.097Z,15.12
2022-11-05T09:20:50.082Z,15.43
2022-11-05T09:21:50.078Z,15.67
2022-11-05T09:22:50.045Z,15.93
2022-11-05T09:23:50.044Z,16.22
2022-11-05T09:24:50.726Z,16.44
2022-11-05T09:25:50.018Z,16.67
2022-11-05T09:26:50.011Z,16.85
2022-11-05T09:27:50.002Z,16.98
2022-11-05T09:28:49.988Z,16.88
2022-11-05T09:29:49.939Z,16.85
2022-11-05T09:30:49.996Z,16.98
2022-11-05T09:31:49.919Z,17.15
2022-11-05T09:32:49.913Z,17.36
2022-11-05T09:33:49.913Z,17.51
2022-11-05T09:34:49.883Z,17.51
2022-11-05T09:35:49.880Z,17.43
2022-11-05T09:36:49.870Z,17.32
2022-11-05T09:37:49.858Z,17.17
2022-11-05T09:38:49.832Z,17.03
2022-11-05T09:39:49.849Z,16.90
2022-11-05T09:40:49.837Z,16.75
2022-11-05T09:41:49.790Z,16.62
2022-11-05T09:42:49.815Z,16.59
2022-11-05T09:43:49.769Z,16.57
2022-11-05T09:44:49.806Z,16.48
2022-11-05T09:45:49.762Z,16.37
2022-11-05T09:46:49.732Z,16.32
2022-11-05T09:47:49.729Z,16.33
2022-11-05T09:48:49.801Z,16.32
2022-11-05T09:49:49.701Z,16.22
2022-11-05T09:50:49.702Z,16.14
2022-11-05T09:51:49.689Z,16.17
2022-11-05T09:52:49.650Z,16.37
2022-11-05T09:53:49.639Z,16.62
2022-11-05T09:54:49.632Z,16.84
2022-11-05T09:55:49.632Z,17.10
2022-11-05T09:56:49.609Z,17.28
2022-11-05T09:57:49.577Z,17.36
2022-11-05T09:58:49.573Z,17.40
2022-11-05T09:59:49.576Z,17.45
2022-11-05T10:00:49.639Z,17.54
2022-11-05T10:01:49.694Z,17.55
2022-11-05T10:02:49.552Z,17.55
2022-11-05T10:03:49.508Z,17.43
2022-11-05T10:04:49.536Z,17.27
2022-11-05T10:05:49.630Z,17.25
2022-11-05T10:06:49.470Z,17.12
2022-11-05T10:07:49.459Z,16.96
2022-11-05T10:08:49.482Z,16.81
2022-11-05T10:09:49.434Z,16.75
2022-11-05T10:10:49.438Z,16.72
2022-11-05T10:11:49.403Z,16.80
2022-11-05T10:12:49.409Z,16.87
2022-11-05T10:13:49.509Z,16.98
2022-11-05T10:14:49.360Z,17.03
2022-11-05T10:15:49.349Z,16.99
2022-11-05T10:16:49.334Z,17.00
2022-11-05T10:17:49.310Z,16.98
2022-11-05T10:18:49.301Z,17.00
2022-11-05T10:19:49.299Z,17.03
2022-11-05T10:20:49.311Z,17.05
2022-11-05T10:22:06.148Z,17.07
2022-11-05T10:22:50.255Z,17.12
2022-11-05T10:23:49.249Z,17.18
2022-11-05T10:24:49.234Z,17.25
2022-11-05T10:25:49.238Z,17.32
2022-11-05T10:26:49.219Z,17.38
2022-11-05T10:27:49.194Z,17.40
2022-11-05T10:28:49.174Z,17.39
2022-11-05T10:29:49.188Z,17.27
2022-11-05T10:30:49.157Z,17.27
2022-11-05T10:31:49.135Z,17.28
2022-11-05T10:32:49.123Z,17.28
2022-11-05T10:33:49.124Z,17.30
2022-11-05T10:34:49.101Z,17.28
2022-11-05T10:35:49.093Z,17.33
2022-11-05T10:36:49.083Z,17.30
2022-11-05T10:37:49.053Z,17.18
2022-11-05T10:38:49.043Z,17.10
2022-11-05T10:39:49.021Z,17.07
2022-11-05T10:40:49.042Z,17.10
2022-11-05T10:41:49.005Z,17.15
2022-11-05T10:42:48.991Z,17.21
2022-11-05T10:43:48.972Z,17.22
2022-11-05T10:44:48.973Z,17.28
2022-11-05T10:45:48.963Z,17.35
2022-11-05T10:46:48.943Z,17.40
2022-11-05T10:47:48.923Z,17.46
2022-11-05T10:48:48.932Z,17.54
2022-11-05T10:49:48.901Z,17.60
2022-11-05T10:50:48.917Z,17.66
2022-11-05T10:51:48.881Z,17.76
2022-11-05T10:52:48.868Z,17.81
2022-11-05T10:53:48.860Z,17.89
2022-11-05T10:54:48.831Z,17.87
2022-11-05T10:55:48.874Z,17.89
2022-11-05T10:56:48.803Z,17.89
2022-11-05T10:57:48.795Z,17.73
2022-11-05T10:58:48.808Z,17.57
2022-11-05T10:59:48.754Z,17.43
2022-11-05T11:00:48.847Z,17.28
2022-11-05T11:01:48.872Z,17.27
2022-11-05T11:02:48.734Z,17.32
2022-11-05T11:03:48.705Z,17.38
2022-11-05T11:04:48.702Z,17.35
2022-11-05T11:05:48.787Z,17.32
2022-11-05T11:06:48.686Z,17.39
2022-11-05T11:07:48.668Z,17.46
2022-11-05T11:08:48.676Z,17.46
2022-11-05T11:09:48.665Z,17.47
2022-11-05T11:10:48.645Z,17.51
2022-11-05T11:11:48.605Z,17.53
2022-11-05T11:12:48.594Z,17.51
2022-11-05T11:13:48.585Z,17.51
2022-11-05T11:14:48.593Z,17.43
2022-11-05T11:15:48.547Z,17.35
2022-11-05T11:16:48.542Z,17.39
2022-11-05T11:17:48.526Z,17.40
2022-11-05T11:18:48.524Z,17.33
2022-11-05T11:19:48.527Z,17.27
2022-11-05T11:20:48.508Z,17.20
2022-11-05T11:21:48.477Z,17.09
2022-11-05T11:22:48.503Z,16.99
2022-11-05T11:23:48.465Z,16.85
2022-11-05T11:24:48.515Z,16.73
2022-11-05T11:25:48.418Z,16.65
2022-11-05T11:26:48.419Z,16.50
2022-11-05T11:27:48.408Z,16.36
2022-11-05T11:28:48.394Z,16.23
2022-11-05T11:29:49.679Z,16.04
2022-11-05T11:30:48.357Z,15.89
2022-11-05T11:31:48.339Z,15.76
2022-11-05T11:32:48.386Z,15.67
2022-11-05T11:33:48.317Z,15.59
2022-11-05T11:34:48.348Z,15.49
2022-11-05T11:35:48.291Z,15.38
2022-11-05T11:36:48.285Z,15.27
2022-11-05T11:37:48.255Z,15.18
2022-11-05T11:38:48.268Z,15.05
2022-11-05T11:39:48.244Z,14.95
2022-11-05T11:40:48.248Z,14.83
2022-11-05T11:41:48.212Z,14.74
2022-11-05T11:42:48.216Z,14.66
2022-11-05T11:43:48.193Z,14.53
2022-11-05T11:44:48.221Z,14.42
2022-11-05T11:45:48.157Z,14.35
2022-11-05T11:46:48.406Z,14.29
2022-11-05T11:47:48.204Z,14.23
2022-11-05T11:48:48.127Z,14.21
2022-11-05T11:49:48.130Z,14.27
2022-11-05T11:50:48.096Z,14.39
2022-11-05T11:51:50.123Z,14.52
2022-11-05T11:52:48.291Z,14.61
2022-11-05T11:53:48.045Z,14.75
2022-11-05T11:54:48.061Z,14.87
2022-11-05T11:55:48.029Z,15.01
2022-11-05T11:56:48.060Z,15.11
2022-11-05T11:57:48.091Z,15.19
2022-11-05T11:58:48.043Z,15.31
2022-11-05T12:00:07.820Z,15.41
2022-11-05T12:00:49.162Z,15.43
2022-11-05T12:01:48.020Z,15.43
2022-11-05T12:02:47.999Z,15.44
2022-11-05T12:03:47.925Z,15.44
2022-11-05T12:04:47.926Z,15.43
2022-11-05T12:05:47.934Z,15.41
2022-11-05T12:06:47.891Z,15.34
2022-11-05T12:07:47.880Z,15.28
2022-11-05T12:08:52.340Z,15.19
2022-11-05T12:09:48.843Z,15.11
2022-11-05T12:10:47.836Z,15.05
2022-11-05T12:11:47.946Z,15.00
2022-11-05T12:12:47.806Z,14.95
2022-11-05T12:13:47.813Z,14.87
2022-11-05T12:14:47.835Z,14.80
2022-11-05T12:15:47.776Z,14.72
2022-11-05T12:16:47.768Z,14.64
2022-11-05T12:17:47.740Z,14.59
2022-11-05T12:18:47.733Z,14.53
2022-11-05T12:19:47.720Z,14.49
2022-11-05T12:20:48.649Z,14.44
2022-11-05T12:21:53.055Z,14.38
2022-11-05T12:22:48.669Z,14.31
2022-11-05T12:23:47.694Z,14.24
2022-11-05T12:24:47.660Z,14.21
2022-11-05T12:25:48.307Z,14.17
2022-11-05T12:26:47.621Z,14.12
2022-11-05T12:27:47.618Z,14.08
2022-11-05T12:29:16.609Z,14.04
2022-11-05T12:29:48.585Z,13.93
2022-11-05T12:30:47.569Z,13.90
2022-11-05T12:31:47.548Z,13.84
2022-11-05T12:32:47.652Z,13.81
2022-11-05T12:33:47.525Z,13.79
2022-11-05T12:34:47.547Z,13.73
2022-11-05T12:35:49.976Z,13.68
2022-11-05T12:36:47.488Z,13.62
2022-11-05T12:37:47.459Z,13.55
2022-11-05T12:38:47.490Z,13.50
2022-11-05T12:39:47.458Z,13.46
2022-11-05T12:40:47.429Z,13.41
2022-11-05T12:41:47.587Z,13.36
2022-11-05T12:42:47.514Z,13.32
2022-11-05T12:43:47.498Z,13.28
2022-11-05T12:44:47.470Z,13.25
2022-11-05T12:45:47.360Z,13.24
2022-11-05T12:46:47.425Z,13.22
2022-11-05T12:47:47.358Z,13.22
2022-11-05T12:48:47.323Z,13.22
2022-11-05T12:49:47.343Z,13.19
2022-11-05T12:50:47.295Z,13.16
2022-11-05T12:51:47.289Z,13.16
2022-11-05T12:52:47.279Z,13.16
2022-11-05T12:53:47.269Z,13.13
2022-11-05T12:54:47.256Z,13.12
2022-11-05T12:55:48.825Z,13.10
2022-11-05T12:56:47.265Z,13.10
2022-11-05T12:57:47.202Z,13.09
2022-11-05T12:58:47.204Z,13.04
2022-11-05T12:59:47.219Z,13.03
2022-11-05T13:00:47.166Z,13.03
2022-11-05T13:01:47.318Z,13.01
2022-11-05T13:02:47.139Z,13.10
2022-11-05T13:03:47.173Z,13.16
2022-11-05T13:04:47.119Z,13.25
2022-11-05T13:05:47.120Z,13.32
2022-11-05T13:06:47.087Z,13.38
2022-11-05T13:07:47.121Z,13.44
2022-11-05T13:08:47.091Z,13.46